Derby, Ohio
Current Conditions -  °F | °C
As of 5:15 AM on Tuesday 21 Oct 2014 (Local Time) from KTZR Reporting Station
Haze Haze  
Wind Chill: 49°   Ceiling: 3100
Heat Index: 49°   Visibility: 4mi
Dew Point: 49°   Wind: 3mph
Humidity: 99%   Direction: 310°NW
Pressure: 29.89"   Gusts: NA
Location:  39.77°N, 83.21°W
Report Text: KTZR 210915Z AUTO 31003KT 4SM BR OVC031 10/09 A2989 RMK AO2 T00960094
Loading
Personal Weather Stations






























Interactive Weather Map
Tropical Storm Tracking
New forecast layout! Learn more

10-Day Weather Forecast

Advertisements
Track Severe Weather on mobile